sensor_id;sensor_type;location;lat;lon;timestamp;P1;durP1;ratioP1;P2;durP2;ratioP2
3849;SDS011;1940;51.052;13.678;2023-02-13T00:00:34;27.60;;;12.20;;
3849;SDS011;1940;51.052;13.678;2023-02-13T00:03:00;24.30;;;12.00;;
3849;SDS011;1940;51.052;13.678;2023-02-13T00:05:26;24.77;;;11.03;;
3849;SDS011;1940;51.052;13.678;2023-02-13T00:07:51;34.00;;;11.53;;
3849;SDS011;1940;51.052;13.678;2023-02-13T00:10:17;32.30;;;11.60;;
3849;SDS011;1940;51.052;13.678;2023-02-13T00:12:42;29.53;;;12.50;;
3849;SDS011;1940;51.052;13.678;2023-02-13T00:15:08;29.50;;;12.77;;
3849;SDS011;1940;51.052;13.678;2023-02-13T00:17:34;25.20;;;12.50;;
3849;SDS011;1940;51.052;13.678;2023-02-13T00:20:00;23.00;;;10.83;;
3849;SDS011;1940;51.052;13.678;2023-02-13T00:22:25;27.87;;;12.40;;
3849;SDS011;1940;51.052;13.678;2023-02-13T00:24:51;25.97;;;11.33;;
3849;SDS011;1940;51.052;13.678;2023-02-13T00:27:16;27.83;;;11.90;;
3849;SDS011;1940;51.052;13.678;2023-02-13T00:29:42;27.10;;;11.67;;
3849;SDS011;1940;51.052;13.678;2023-02-13T00:32:08;36.97;;;13.23;;
3849;SDS011;1940;51.052;13.678;2023-02-13T00:34:33;40.07;;;13.13;;
3849;SDS011;1940;51.052;13.678;2023-02-13T00:36:59;28.90;;;12.77;;
3849;SDS011;1940;51.052;13.678;2023-02-13T00:39:24;28.87;;;11.30;;
3849;SDS011;1940;51.052;13.678;2023-02-13T00:41:50;34.63;;;13.47;;
3849;SDS011;1940;51.052;13.678;2023-02-13T00:44:15;37.63;;;13.50;;
3849;SDS011;1940;51.052;13.678;2023-02-13T00:46:41;29.57;;;11.40;;
3849;SDS011;1940;51.052;13.678;2023-02-13T00:49:06;24.97;;;11.73;;
3849;SDS011;1940;51.052;13.678;2023-02-13T00:51:32;28.20;;;11.97;;
3849;SDS011;1940;51.052;13.678;2023-02-13T00:53:57;28.80;;;12.70;;
3849;SDS011;1940;51.052;13.678;2023-02-13T00:56:23;27.93;;;12.43;;
3849;SDS011;1940;51.052;13.678;2023-02-13T00:58:48;35.10;;;12.67;;
3849;SDS011;1940;51.052;13.678;2023-02-13T01:01:14;32.40;;;13.30;;
3849;SDS011;1940;51.052;13.678;2023-02-13T01:03:40;34.70;;;13.30;;
3849;SDS011;1940;51.052;13.678;2023-02-13T01:06:06;33.47;;;12.63;;
3849;SDS011;1940;51.052;13.678;2023-02-13T01:08:32;35.93;;;13.37;;
3849;SDS011;1940;51.052;13.678;2023-02-13T01:10:58;33.37;;;12.73;;
3849;SDS011;1940;51.052;13.678;2023-02-13T01:13:24;30.10;;;12.60;;
3849;SDS011;1940;51.052;13.678;2023-02-13T01:15:49;38.97;;;12.80;;
3849;SDS011;1940;51.052;13.678;2023-02-13T01:18:16;38.23;;;13.67;;
3849;SDS011;1940;51.052;13.678;2023-02-13T01:20:43;41.60;;;14.00;;
3849;SDS011;1940;51.052;13.678;2023-02-13T01:23:09;40.77;;;14.80;;
3849;SDS011;1940;51.052;13.678;2023-02-13T01:25:41;48.33;;;15.30;;
3849;SDS011;1940;51.052;13.678;2023-02-13T01:28:07;37.63;;;14.33;;
3849;SDS011;1940;51.052;13.678;2023-02-13T01:30:33;35.43;;;14.67;;
3849;SDS011;1940;51.052;13.678;2023-02-13T01:32:58;43.53;;;15.60;;
3849;SDS011;1940;51.052;13.678;2023-02-13T01:35:24;48.87;;;16.90;;
3849;SDS011;1940;51.052;13.678;2023-02-13T01:37:49;43.80;;;16.17;;
3849;SDS011;1940;51.052;13.678;2023-02-13T01:40:15;45.40;;;16.07;;
3849;SDS011;1940;51.052;13.678;2023-02-13T01:42:41;38.93;;;14.87;;
3849;SDS011;1940;51.052;13.678;2023-02-13T01:47:51;48.93;;;17.07;;
3849;SDS011;1940;51.052;13.678;2023-02-13T01:50:31;41.97;;;16.20;;
3849;SDS011;1940;51.052;13.678;2023-02-13T01:55:41;40.83;;;14.70;;
3849;SDS011;1940;51.052;13.678;2023-02-13T01:58:11;38.43;;;14.13;;
3849;SDS011;1940;51.052;13.678;2023-02-13T02:00:42;41.87;;;15.53;;
3849;SDS011;1940;51.052;13.678;2023-02-13T02:03:14;35.90;;;14.00;;
3849;SDS011;1940;51.052;13.678;2023-02-13T02:05:48;36.67;;;14.30;;
3849;SDS011;1940;51.052;13.678;2023-02-13T02:08:16;48.20;;;14.40;;
3849;SDS011;1940;51.052;13.678;2023-02-13T02:10:43;34.07;;;14.77;;
3849;SDS011;1940;51.052;13.678;2023-02-13T02:13:13;33.83;;;14.30;;
3849;SDS011;1940;51.052;13.678;2023-02-13T02:15:42;35.17;;;15.00;;
3849;SDS011;1940;51.052;13.678;2023-02-13T02:18:15;38.23;;;14.43;;
3849;SDS011;1940;51.052;13.678;2023-02-13T02:20:53;36.47;;;14.10;;
3849;SDS011;1940;51.052;13.678;2023-02-13T02:35:21;38.20;;;14.47;;
3849;SDS011;1940;51.052;13.678;2023-02-13T02:37:54;34.93;;;13.43;;
3849;SDS011;1940;51.052;13.678;2023-02-13T02:40:38;39.67;;;15.20;;
3849;SDS011;1940;51.052;13.678;2023-02-13T02:46:15;34.43;;;14.20;;
3849;SDS011;1940;51.052;13.678;2023-02-13T02:48:52;32.63;;;14.30;;
3849;SDS011;1940;51.052;13.678;2023-02-13T02:57:29;43.43;;;14.97;;
3849;SDS011;1940;51.052;13.678;2023-02-13T03:00:15;36.63;;;14.20;;
3849;SDS011;1940;51.052;13.678;2023-02-13T03:03:04;41.07;;;15.00;;
3849;SDS011;1940;51.052;13.678;2023-02-13T03:05:52;34.63;;;13.50;;
3849;SDS011;1940;51.052;13.678;2023-02-13T03:08:38;38.87;;;14.23;;
3849;SDS011;1940;51.052;13.678;2023-02-13T03:11:25;41.53;;;14.53;;
3849;SDS011;1940;51.052;13.678;2023-02-13T03:14:09;40.17;;;14.60;;
3849;SDS011;1940;51.052;13.678;2023-02-13T03:16:39;32.60;;;14.40;;
3849;SDS011;1940;51.052;13.678;2023-02-13T03:19:33;33.90;;;14.30;;
3849;SDS011;1940;51.052;13.678;2023-02-13T03:22:41;32.90;;;13.30;;
3849;SDS011;1940;51.052;13.678;2023-02-13T03:28:16;31.80;;;12.30;;
3849;SDS011;1940;51.052;13.678;2023-02-13T03:33:55;32.30;;;12.93;;
3849;SDS011;1940;51.052;13.678;2023-02-13T03:36:43;34.77;;;13.73;;
3849;SDS011;1940;51.052;13.678;2023-02-13T03:42:46;37.07;;;13.60;;
3849;SDS011;1940;51.052;13.678;2023-02-13T03:45:29;31.20;;;13.17;;
3849;SDS011;1940;51.052;13.678;2023-02-13T03:48:25;32.40;;;13.23;;
3849;SDS011;1940;51.052;13.678;2023-02-13T03:51:14;35.93;;;12.37;;
3849;SDS011;1940;51.052;13.678;2023-02-13T03:53:53;34.30;;;12.80;;
3849;SDS011;1940;51.052;13.678;2023-02-13T03:56:22;32.67;;;12.63;;
3849;SDS011;1940;51.052;13.678;2023-02-13T03:59:11;28.00;;;12.87;;
3849;SDS011;1940;51.052;13.678;2023-02-13T04:02:09;33.33;;;12.23;;
3849;SDS011;1940;51.052;13.678;2023-02-13T04:04:51;32.90;;;13.40;;
3849;SDS011;1940;51.052;13.678;2023-02-13T04:07:24;29.10;;;12.80;;
3849;SDS011;1940;51.052;13.678;2023-02-13T04:10:02;30.80;;;12.97;;
3849;SDS011;1940;51.052;13.678;2023-02-13T04:18:03;29.83;;;11.70;;
3849;SDS011;1940;51.052;13.678;2023-02-13T04:20:35;28.40;;;11.80;;
3849;SDS011;1940;51.052;13.678;2023-02-13T04:23:08;33.73;;;12.33;;
3849;SDS011;1940;51.052;13.678;2023-02-13T04:25:36;28.67;;;11.90;;
3849;SDS011;1940;51.052;13.678;2023-02-13T04:28:03;30.07;;;12.13;;
3849;SDS011;1940;51.052;13.678;2023-02-13T04:30:29;23.87;;;12.13;;
3849;SDS011;1940;51.052;13.678;2023-02-13T04:32:55;28.80;;;11.97;;
3849;SDS011;1940;51.052;13.678;2023-02-13T04:35:20;24.77;;;11.20;;
3849;SDS011;1940;51.052;13.678;2023-02-13T04:37:46;33.17;;;12.37;;
3849;SDS011;1940;51.052;13.678;2023-02-13T04:40:12;28.33;;;12.63;;
3849;SDS011;1940;51.052;13.678;2023-02-13T04:42:37;28.00;;;12.27;;
3849;SDS011;1940;51.052;13.678;2023-02-13T04:45:03;30.73;;;11.40;;
3849;SDS011;1940;51.052;13.678;2023-02-13T04:47:29;26.80;;;11.83;;
3849;SDS011;1940;51.052;13.678;2023-02-13T04:49:54;30.53;;;12.40;;
3849;SDS011;1940;51.052;13.678;2023-02-13T04:52:20;27.63;;;11.83;;
3849;SDS011;1940;51.052;13.678;2023-02-13T04:54:45;24.80;;;11.00;;
3849;SDS011;1940;51.052;13.678;2023-02-13T04:57:11;25.90;;;12.13;;
3849;SDS011;1940;51.052;13.678;2023-02-13T04:59:36;26.87;;;12.20;;
3849;SDS011;1940;51.052;13.678;2023-02-13T05:02:02;31.00;;;11.47;;
3849;SDS011;1940;51.052;13.678;2023-02-13T05:04:27;28.10;;;12.27;;
3849;SDS011;1940;51.052;13.678;2023-02-13T05:06:53;27.83;;;11.30;;
3849;SDS011;1940;51.052;13.678;2023-02-13T05:09:19;30.27;;;11.33;;
3849;SDS011;1940;51.052;13.678;2023-02-13T05:11:44;28.73;;;10.90;;
3849;SDS011;1940;51.052;13.678;2023-02-13T05:14:10;26.50;;;11.60;;
3849;SDS011;1940;51.052;13.678;2023-02-13T05:16:35;32.37;;;11.07;;
3849;SDS011;1940;51.052;13.678;2023-02-13T05:19:01;26.43;;;10.50;;
3849;SDS011;1940;51.052;13.678;2023-02-13T05:21:27;27.50;;;11.13;;
3849;SDS011;1940;51.052;13.678;2023-02-13T05:24:11;26.30;;;10.57;;
3849;SDS011;1940;51.052;13.678;2023-02-13T05:26:36;29.10;;;11.50;;
3849;SDS011;1940;51.052;13.678;2023-02-13T05:29:02;27.03;;;13.33;;
3849;SDS011;1940;51.052;13.678;2023-02-13T05:31:43;25.47;;;10.90;;
3849;SDS011;1940;51.052;13.678;2023-02-13T05:34:09;27.37;;;11.20;;
3849;SDS011;1940;51.052;13.678;2023-02-13T05:36:35;24.73;;;10.43;;
3849;SDS011;1940;51.052;13.678;2023-02-13T05:39:00;25.50;;;11.57;;
3849;SDS011;1940;51.052;13.678;2023-02-13T05:41:26;30.37;;;11.30;;
3849;SDS011;1940;51.052;13.678;2023-02-13T05:43:51;31.40;;;12.63;;
3849;SDS011;1940;51.052;13.678;2023-02-13T05:46:16;23.60;;;11.17;;
3849;SDS011;1940;51.052;13.678;2023-02-13T05:48:42;25.77;;;10.10;;
3849;SDS011;1940;51.052;13.678;2023-02-13T05:51:08;23.63;;;10.57;;
3849;SDS011;1940;51.052;13.678;2023-02-13T05:53:33;28.93;;;11.60;;
3849;SDS011;1940;51.052;13.678;2023-02-13T05:55:59;24.80;;;9.93;;
3849;SDS011;1940;51.052;13.678;2023-02-13T05:58:26;30.70;;;10.40;;
3849;SDS011;1940;51.052;13.678;2023-02-13T06:00:53;29.83;;;10.70;;
3849;SDS011;1940;51.052;13.678;2023-02-13T06:03:21;25.77;;;10.70;;
3849;SDS011;1940;51.052;13.678;2023-02-13T06:05:46;33.23;;;11.97;;
3849;SDS011;1940;51.052;13.678;2023-02-13T06:08:12;32.50;;;10.73;;
3849;SDS011;1940;51.052;13.678;2023-02-13T06:10:37;32.57;;;12.30;;
3849;SDS011;1940;51.052;13.678;2023-02-13T06:13:03;27.83;;;10.77;;
3849;SDS011;1940;51.052;13.678;2023-02-13T06:15:28;25.83;;;10.57;;
3849;SDS011;1940;51.052;13.678;2023-02-13T06:17:54;28.13;;;11.13;;
3849;SDS011;1940;51.052;13.678;2023-02-13T06:20:19;23.47;;;9.87;;
3849;SDS011;1940;51.052;13.678;2023-02-13T06:22:51;27.90;;;11.37;;
3849;SDS011;1940;51.052;13.678;2023-02-13T06:25:17;24.47;;;10.40;;
3849;SDS011;1940;51.052;13.678;2023-02-13T06:27:43;29.83;;;10.80;;
3849;SDS011;1940;51.052;13.678;2023-02-13T06:30:09;26.00;;;10.10;;
3849;SDS011;1940;51.052;13.678;2023-02-13T06:32:35;24.00;;;10.00;;
3849;SDS011;1940;51.052;13.678;2023-02-13T06:35:01;29.27;;;10.27;;
3849;SDS011;1940;51.052;13.678;2023-02-13T06:37:27;24.30;;;11.13;;
3849;SDS011;1940;51.052;13.678;2023-02-13T06:39:52;28.87;;;10.30;;
3849;SDS011;1940;51.052;13.678;2023-02-13T06:42:18;29.23;;;11.57;;
3849;SDS011;1940;51.052;13.678;2023-02-13T06:44:43;28.60;;;12.63;;
3849;SDS011;1940;51.052;13.678;2023-02-13T06:47:09;32.13;;;11.90;;
3849;SDS011;1940;51.052;13.678;2023-02-13T06:49:34;29.00;;;12.33;;
3849;SDS011;1940;51.052;13.678;2023-02-13T06:52:00;32.17;;;12.10;;
3849;SDS011;1940;51.052;13.678;2023-02-13T06:54:25;28.67;;;11.77;;
3849;SDS011;1940;51.052;13.678;2023-02-13T06:56:51;24.20;;;10.30;;
3849;SDS011;1940;51.052;13.678;2023-02-13T06:59:16;38.07;;;12.77;;
3849;SDS011;1940;51.052;13.678;2023-02-13T07:01:42;33.13;;;12.73;;
3849;SDS011;1940;51.052;13.678;2023-02-13T07:04:07;39.33;;;12.80;;
3849;SDS011;1940;51.052;13.678;2023-02-13T07:06:33;36.77;;;13.30;;
3849;SDS011;1940;51.052;13.678;2023-02-13T07:08:59;35.40;;;13.13;;
3849;SDS011;1940;51.052;13.678;2023-02-13T07:11:28;32.57;;;13.20;;
3849;SDS011;1940;51.052;13.678;2023-02-13T07:13:54;29.40;;;12.00;;
3849;SDS011;1940;51.052;13.678;2023-02-13T07:16:19;40.53;;;13.20;;
3849;SDS011;1940;51.052;13.678;2023-02-13T07:18:45;33.03;;;12.33;;
3849;SDS011;1940;51.052;13.678;2023-02-13T07:21:11;35.90;;;12.77;;
3849;SDS011;1940;51.052;13.678;2023-02-13T07:23:36;38.63;;;12.47;;
3849;SDS011;1940;51.052;13.678;2023-02-13T07:26:03;28.87;;;11.73;;
3849;SDS011;1940;51.052;13.678;2023-02-13T07:28:28;35.37;;;11.93;;
3849;SDS011;1940;51.052;13.678;2023-02-13T07:30:54;33.50;;;11.73;;
3849;SDS011;1940;51.052;13.678;2023-02-13T07:33:20;37.83;;;12.57;;
3849;SDS011;1940;51.052;13.678;2023-02-13T07:35:47;32.50;;;13.00;;
3849;SDS011;1940;51.052;13.678;2023-02-13T07:38:18;29.57;;;11.67;;
3849;SDS011;1940;51.052;13.678;2023-02-13T07:40:44;29.60;;;11.63;;
3849;SDS011;1940;51.052;13.678;2023-02-13T07:43:09;27.93;;;11.80;;
3849;SDS011;1940;51.052;13.678;2023-02-13T07:45:36;30.73;;;12.23;;
3849;SDS011;1940;51.052;13.678;2023-02-13T07:48:02;37.90;;;12.10;;
3849;SDS011;1940;51.052;13.678;2023-02-13T07:50:28;27.00;;;11.90;;
3849;SDS011;1940;51.052;13.678;2023-02-13T07:52:57;32.33;;;12.13;;
3849;SDS011;1940;51.052;13.678;2023-02-13T07:55:24;39.37;;;13.00;;
3849;SDS011;1940;51.052;13.678;2023-02-13T07:57:50;32.30;;;12.40;;
3849;SDS011;1940;51.052;13.678;2023-02-13T08:00:16;29.77;;;13.30;;
3849;SDS011;1940;51.052;13.678;2023-02-13T08:02:43;27.33;;;11.50;;
3849;SDS011;1940;51.052;13.678;2023-02-13T08:05:09;34.67;;;13.03;;
3849;SDS011;1940;51.052;13.678;2023-02-13T08:07:35;30.57;;;11.97;;
3849;SDS011;1940;51.052;13.678;2023-02-13T08:10:01;35.40;;;13.13;;
3849;SDS011;1940;51.052;13.678;2023-02-13T08:12:46;30.90;;;11.40;;
3849;SDS011;1940;51.052;13.678;2023-02-13T08:15:12;26.90;;;10.43;;
3849;SDS011;1940;51.052;13.678;2023-02-13T08:17:39;30.83;;;11.00;;
3849;SDS011;1940;51.052;13.678;2023-02-13T08:20:05;29.10;;;10.13;;
3849;SDS011;1940;51.052;13.678;2023-02-13T08:22:35;29.93;;;11.13;;
3849;SDS011;1940;51.052;13.678;2023-02-13T08:25:01;28.93;;;10.27;;
3849;SDS011;1940;51.052;13.678;2023-02-13T08:27:27;33.30;;;9.80;;
3849;SDS011;1940;51.052;13.678;2023-02-13T08:29:54;25.63;;;10.57;;
3849;SDS011;1940;51.052;13.678;2023-02-13T08:32:20;31.40;;;11.70;;
3849;SDS011;1940;51.052;13.678;2023-02-13T08:34:45;27.33;;;10.50;;
3849;SDS011;1940;51.052;13.678;2023-02-13T08:37:11;33.77;;;11.97;;
3849;SDS011;1940;51.052;13.678;2023-02-13T08:39:36;25.30;;;9.87;;
3849;SDS011;1940;51.052;13.678;2023-02-13T08:42:02;25.33;;;9.77;;
3849;SDS011;1940;51.052;13.678;2023-02-13T08:44:27;24.50;;;10.40;;
3849;SDS011;1940;51.052;13.678;2023-02-13T08:46:53;27.43;;;10.40;;
3849;SDS011;1940;51.052;13.678;2023-02-13T08:49:18;23.67;;;10.17;;
3849;SDS011;1940;51.052;13.678;2023-02-13T08:51:44;23.70;;;9.47;;
3849;SDS011;1940;51.052;13.678;2023-02-13T08:54:09;25.07;;;9.77;;
3849;SDS011;1940;51.052;13.678;2023-02-13T08:56:35;24.90;;;9.43;;
3849;SDS011;1940;51.052;13.678;2023-02-13T08:59:00;22.77;;;9.03;;
3849;SDS011;1940;51.052;13.678;2023-02-13T09:01:26;20.30;;;9.13;;
3849;SDS011;1940;51.052;13.678;2023-02-13T09:03:51;25.57;;;9.47;;
3849;SDS011;1940;51.052;13.678;2023-02-13T09:06:17;25.93;;;9.60;;
3849;SDS011;1940;51.052;13.678;2023-02-13T09:08:43;22.47;;;9.30;;
3849;SDS011;1940;51.052;13.678;2023-02-13T09:11:08;29.03;;;9.47;;
3849;SDS011;1940;51.052;13.678;2023-02-13T09:13:35;27.23;;;9.40;;
3849;SDS011;1940;51.052;13.678;2023-02-13T09:16:04;24.40;;;9.10;;
3849;SDS011;1940;51.052;13.678;2023-02-13T09:18:31;24.13;;;9.70;;
3849;SDS011;1940;51.052;13.678;2023-02-13T09:21:02;22.80;;;9.80;;
3849;SDS011;1940;51.052;13.678;2023-02-13T09:23:30;26.67;;;10.03;;
3849;SDS011;1940;51.052;13.678;2023-02-13T09:25:59;22.00;;;9.20;;
3849;SDS011;1940;51.052;13.678;2023-02-13T09:28:26;21.90;;;9.10;;
3849;SDS011;1940;51.052;13.678;2023-02-13T09:30:56;21.93;;;9.20;;
3849;SDS011;1940;51.052;13.678;2023-02-13T09:33:21;21.50;;;9.73;;
3849;SDS011;1940;51.052;13.678;2023-02-13T09:35:47;25.80;;;11.00;;
3849;SDS011;1940;51.052;13.678;2023-02-13T09:38:13;26.57;;;9.53;;
3849;SDS011;1940;51.052;13.678;2023-02-13T09:40:41;22.77;;;9.63;;
3849;SDS011;1940;51.052;13.678;2023-02-13T09:45:42;25.20;;;10.53;;
3849;SDS011;1940;51.052;13.678;2023-02-13T09:48:17;28.30;;;10.70;;
3849;SDS011;1940;51.052;13.678;2023-02-13T09:50:48;21.70;;;9.90;;
3849;SDS011;1940;51.052;13.678;2023-02-13T09:53:19;22.57;;;11.00;;
3849;SDS011;1940;51.052;13.678;2023-02-13T09:56:21;23.57;;;9.97;;
3849;SDS011;1940;51.052;13.678;2023-02-13T09:58:51;17.67;;;9.37;;
3849;SDS011;1940;51.052;13.678;2023-02-13T10:01:31;19.20;;;9.67;;
3849;SDS011;1940;51.052;13.678;2023-02-13T10:04:07;19.60;;;9.60;;
3849;SDS011;1940;51.052;13.678;2023-02-13T10:06:38;25.50;;;11.33;;
3849;SDS011;1940;51.052;13.678;2023-02-13T10:09:20;22.20;;;9.80;;
3849;SDS011;1940;51.052;13.678;2023-02-13T10:14:57;21.70;;;9.43;;
3849;SDS011;1940;51.052;13.678;2023-02-13T10:17:41;18.10;;;9.47;;
3849;SDS011;1940;51.052;13.678;2023-02-13T10:20:29;20.47;;;10.30;;
3849;SDS011;1940;51.052;13.678;2023-02-13T10:26:02;23.17;;;8.83;;
3849;SDS011;1940;51.052;13.678;2023-02-13T10:28:36;16.17;;;7.97;;
3849;SDS011;1940;51.052;13.678;2023-02-13T10:31:06;16.60;;;8.20;;
3849;SDS011;1940;51.052;13.678;2023-02-13T10:33:45;15.90;;;8.03;;
3849;SDS011;1940;51.052;13.678;2023-02-13T10:36:24;15.10;;;7.60;;
3849;SDS011;1940;51.052;13.678;2023-02-13T10:39:00;14.90;;;7.20;;
3849;SDS011;1940;51.052;13.678;2023-02-13T10:41:43;14.97;;;8.37;;
3849;SDS011;1940;51.052;13.678;2023-02-13T10:47:08;15.80;;;8.47;;
3849;SDS011;1940;51.052;13.678;2023-02-13T10:49:44;12.53;;;7.40;;
3849;SDS011;1940;51.052;13.678;2023-02-13T10:52:33;15.63;;;8.00;;
3849;SDS011;1940;51.052;13.678;2023-02-13T10:58:06;12.97;;;6.93;;
3849;SDS011;1940;51.052;13.678;2023-02-13T11:03:19;15.80;;;7.47;;
3849;SDS011;1940;51.052;13.678;2023-02-13T11:05:50;12.60;;;6.53;;
3849;SDS011;1940;51.052;13.678;2023-02-13T11:10:44;11.90;;;7.07;;
3849;SDS011;1940;51.052;13.678;2023-02-13T11:13:13;13.97;;;7.27;;
3849;SDS011;1940;51.052;13.678;2023-02-13T11:15:41;19.20;;;9.77;;
3849;SDS011;1940;51.052;13.678;2023-02-13T11:18:13;12.93;;;6.70;;
3849;SDS011;1940;51.052;13.678;2023-02-13T11:20:44;13.57;;;7.00;;
3849;SDS011;1940;51.052;13.678;2023-02-13T11:25:58;14.03;;;7.63;;
3849;SDS011;1940;51.052;13.678;2023-02-13T11:28:28;12.37;;;6.87;;
3849;SDS011;1940;51.052;13.678;2023-02-13T11:31:13;12.23;;;6.33;;
3849;SDS011;1940;51.052;13.678;2023-02-13T11:33:47;12.20;;;6.63;;
3849;SDS011;1940;51.052;13.678;2023-02-13T11:36:14;12.40;;;7.03;;
3849;SDS011;1940;51.052;13.678;2023-02-13T11:38:46;11.13;;;6.73;;
3849;SDS011;1940;51.052;13.678;2023-02-13T11:41:25;12.97;;;7.83;;
3849;SDS011;1940;51.052;13.678;2023-02-13T11:43:53;14.33;;;7.13;;
3849;SDS011;1940;51.052;13.678;2023-02-13T11:46:25;13.30;;;7.23;;
3849;SDS011;1940;51.052;13.678;2023-02-13T11:48:57;14.30;;;7.87;;
3849;SDS011;1940;51.052;13.678;2023-02-13T11:51:37;11.37;;;6.70;;
3849;SDS011;1940;51.052;13.678;2023-02-13T11:54:21;12.40;;;7.83;;
3849;SDS011;1940;51.052;13.678;2023-02-13T11:56:51;10.10;;;5.80;;
3849;SDS011;1940;51.052;13.678;2023-02-13T11:59:21;11.27;;;6.87;;
3849;SDS011;1940;51.052;13.678;2023-02-13T12:01:56;10.60;;;6.17;;
3849;SDS011;1940;51.052;13.678;2023-02-13T12:04:43;9.73;;;6.10;;
3849;SDS011;1940;51.052;13.678;2023-02-13T12:07:19;10.57;;;6.43;;
3849;SDS011;1940;51.052;13.678;2023-02-13T12:09:52;11.23;;;6.30;;
3849;SDS011;1940;51.052;13.678;2023-02-13T12:12:38;8.93;;;5.93;;
3849;SDS011;1940;51.052;13.678;2023-02-13T12:15:25;11.30;;;6.97;;
3849;SDS011;1940;51.052;13.678;2023-02-13T12:17:56;11.70;;;7.20;;
3849;SDS011;1940;51.052;13.678;2023-02-13T12:20:26;11.00;;;6.73;;
3849;SDS011;1940;51.052;13.678;2023-02-13T12:23:02;11.27;;;6.40;;
3849;SDS011;1940;51.052;13.678;2023-02-13T12:26:00;13.60;;;6.77;;
3849;SDS011;1940;51.052;13.678;2023-02-13T12:28:44;11.63;;;7.20;;
3849;SDS011;1940;51.052;13.678;2023-02-13T12:37:43;7.97;;;5.13;;
3849;SDS011;1940;51.052;13.678;2023-02-13T12:43:06;11.40;;;6.70;;
3849;SDS011;1940;51.052;13.678;2023-02-13T12:54:00;8.10;;;4.60;;
3849;SDS011;1940;51.052;13.678;2023-02-13T12:57:06;9.20;;;5.43;;
3849;SDS011;1940;51.052;13.678;2023-02-13T13:16:58;7.90;;;5.53;;
3849;SDS011;1940;51.052;13.678;2023-02-13T13:19:49;9.53;;;5.47;;
3849;SDS011;1940;51.052;13.678;2023-02-13T13:22:40;8.90;;;5.80;;
3849;SDS011;1940;51.052;13.678;2023-02-13T13:27:57;8.20;;;5.63;;
3849;SDS011;1940;51.052;13.678;2023-02-13T13:30:26;8.90;;;5.20;;
3849;SDS011;1940;51.052;13.678;2023-02-13T13:33:05;8.40;;;5.37;;
3849;SDS011;1940;51.052;13.678;2023-02-13T13:35:39;10.03;;;6.17;;
3849;SDS011;1940;51.052;13.678;2023-02-13T13:44:14;10.07;;;5.80;;
3849;SDS011;1940;51.052;13.678;2023-02-13T13:46:58;9.93;;;5.93;;
3849;SDS011;1940;51.052;13.678;2023-02-13T13:49:50;9.70;;;6.03;;
3849;SDS011;1940;51.052;13.678;2023-02-13T13:52:20;11.77;;;7.20;;
3849;SDS011;1940;51.052;13.678;2023-02-13T13:55:01;8.70;;;5.40;;
3849;SDS011;1940;51.052;13.678;2023-02-13T14:02:36;7.90;;;5.00;;
3849;SDS011;1940;51.052;13.678;2023-02-13T14:07:56;10.80;;;6.13;;
3849;SDS011;1940;51.052;13.678;2023-02-13T14:21:09;12.20;;;5.73;;
3849;SDS011;1940;51.052;13.678;2023-02-13T14:23:43;9.10;;;5.53;;
3849;SDS011;1940;51.052;13.678;2023-02-13T14:31:24;10.53;;;6.07;;
3849;SDS011;1940;51.052;13.678;2023-02-13T14:36:28;11.10;;;5.80;;
3849;SDS011;1940;51.052;13.678;2023-02-13T14:38:58;8.27;;;5.43;;
3849;SDS011;1940;51.052;13.678;2023-02-13T14:47:17;10.43;;;5.93;;
3849;SDS011;1940;51.052;13.678;2023-02-13T14:49:44;11.20;;;6.30;;
3849;SDS011;1940;51.052;13.678;2023-02-13T14:52:14;10.53;;;6.00;;
3849;SDS011;1940;51.052;13.678;2023-02-13T14:54:44;11.83;;;6.63;;
3849;SDS011;1940;51.052;13.678;2023-02-13T14:57:18;9.77;;;6.00;;
3849;SDS011;1940;51.052;13.678;2023-02-13T14:59:48;11.30;;;6.20;;
3849;SDS011;1940;51.052;13.678;2023-02-13T15:02:26;13.70;;;6.77;;
3849;SDS011;1940;51.052;13.678;2023-02-13T15:04:59;10.00;;;5.93;;
3849;SDS011;1940;51.052;13.678;2023-02-13T15:07:28;11.83;;;6.47;;
3849;SDS011;1940;51.052;13.678;2023-02-13T15:10:00;10.80;;;6.40;;
3849;SDS011;1940;51.052;13.678;2023-02-13T15:12:46;13.17;;;7.40;;
3849;SDS011;1940;51.052;13.678;2023-02-13T15:15:22;12.67;;;7.07;;
3849;SDS011;1940;51.052;13.678;2023-02-13T15:17:52;12.03;;;7.03;;
3849;SDS011;1940;51.052;13.678;2023-02-13T15:20:23;14.03;;;7.60;;
3849;SDS011;1940;51.052;13.678;2023-02-13T15:22:52;16.30;;;7.80;;
3849;SDS011;1940;51.052;13.678;2023-02-13T15:25:28;12.40;;;7.30;;
3849;SDS011;1940;51.052;13.678;2023-02-13T15:28:01;12.67;;;7.00;;
3849;SDS011;1940;51.052;13.678;2023-02-13T15:33:01;12.63;;;7.30;;
3849;SDS011;1940;51.052;13.678;2023-02-13T15:35:40;11.07;;;7.13;;
3849;SDS011;1940;51.052;13.678;2023-02-13T15:40:44;12.10;;;7.30;;
3849;SDS011;1940;51.052;13.678;2023-02-13T15:43:16;17.30;;;8.10;;
3849;SDS011;1940;51.052;13.678;2023-02-13T15:46:07;14.03;;;7.70;;
3849;SDS011;1940;51.052;13.678;2023-02-13T15:48:51;16.03;;;8.00;;
3849;SDS011;1940;51.052;13.678;2023-02-13T15:51:22;15.80;;;8.47;;
3849;SDS011;1940;51.052;13.678;2023-02-13T15:54:32;15.70;;;7.67;;
3849;SDS011;1940;51.052;13.678;2023-02-13T15:56:53;15.20;;;7.83;;
3849;SDS011;1940;51.052;13.678;2023-02-13T15:59:20;15.53;;;7.50;;
3849;SDS011;1940;51.052;13.678;2023-02-13T16:01:48;20.50;;;7.80;;
3849;SDS011;1940;51.052;13.678;2023-02-13T16:04:15;17.37;;;7.93;;
3849;SDS011;1940;51.052;13.678;2023-02-13T16:06:43;15.23;;;7.70;;
3849;SDS011;1940;51.052;13.678;2023-02-13T16:12:19;14.53;;;8.00;;
3849;SDS011;1940;51.052;13.678;2023-02-13T16:14:47;18.40;;;8.33;;
3849;SDS011;1940;51.052;13.678;2023-02-13T16:17:20;14.87;;;8.20;;
3849;SDS011;1940;51.052;13.678;2023-02-13T16:19:56;17.03;;;8.50;;
3849;SDS011;1940;51.052;13.678;2023-02-13T16:22:26;15.07;;;8.70;;
3849;SDS011;1940;51.052;13.678;2023-02-13T16:25:03;16.57;;;9.30;;
3849;SDS011;1940;51.052;13.678;2023-02-13T16:27:29;18.67;;;8.80;;
3849;SDS011;1940;51.052;13.678;2023-02-13T16:30:00;16.77;;;8.93;;
3849;SDS011;1940;51.052;13.678;2023-02-13T16:32:30;15.90;;;8.60;;
3849;SDS011;1940;51.052;13.678;2023-02-13T16:35:14;15.30;;;8.60;;
3849;SDS011;1940;51.052;13.678;2023-02-13T16:37:52;16.03;;;9.13;;
3849;SDS011;1940;51.052;13.678;2023-02-13T16:46:24;14.63;;;8.07;;
3849;SDS011;1940;51.052;13.678;2023-02-13T16:51:24;18.67;;;9.40;;
3849;SDS011;1940;51.052;13.678;2023-02-13T16:56:41;15.13;;;8.50;;
3849;SDS011;1940;51.052;13.678;2023-02-13T16:59:20;15.67;;;8.80;;
3849;SDS011;1940;51.052;13.678;2023-02-13T17:04:46;19.60;;;9.97;;
3849;SDS011;1940;51.052;13.678;2023-02-13T17:07:24;17.50;;;9.60;;
3849;SDS011;1940;51.052;13.678;2023-02-13T17:10:05;17.30;;;8.73;;
3849;SDS011;1940;51.052;13.678;2023-02-13T17:12:33;19.60;;;9.73;;
3849;SDS011;1940;51.052;13.678;2023-02-13T17:15:01;18.60;;;10.23;;
3849;SDS011;1940;51.052;13.678;2023-02-13T17:17:28;17.20;;;10.00;;
3849;SDS011;1940;51.052;13.678;2023-02-13T17:19:55;18.37;;;9.97;;
3849;SDS011;1940;51.052;13.678;2023-02-13T17:24:54;19.50;;;9.67;;
3849;SDS011;1940;51.052;13.678;2023-02-13T17:27:19;25.30;;;9.90;;
3849;SDS011;1940;51.052;13.678;2023-02-13T17:29:45;15.67;;;9.20;;
3849;SDS011;1940;51.052;13.678;2023-02-13T17:32:18;18.37;;;10.00;;
3849;SDS011;1940;51.052;13.678;2023-02-13T17:34:47;16.67;;;9.20;;
3849;SDS011;1940;51.052;13.678;2023-02-13T17:37:14;16.57;;;10.17;;
3849;SDS011;1940;51.052;13.678;2023-02-13T17:39:48;21.27;;;10.90;;
3849;SDS011;1940;51.052;13.678;2023-02-13T17:42:15;23.83;;;10.80;;
3849;SDS011;1940;51.052;13.678;2023-02-13T17:44:44;21.00;;;10.00;;
3849;SDS011;1940;51.052;13.678;2023-02-13T17:47:10;21.27;;;10.67;;